Lynn Lake Airport
CYYL : now visible

Airfield :











YOU CAN JOIN US ON...

 
LOGIN :

Register | Disclaimer

   EN    FR    IT 

 









Legend :    VFR   Marginal VFR   IFR   Intensive IFR   Very Intensive IFR
Visi :
Ceiling :
>= 8 km
>= 3000ft
5 to 8 km
1000 to 3000 ft
1500m to 5 km
500 to 1000 ft
800 to 1500m
200 to 500 ft
< 800m
< 200 ft
Symbols :   Thunderstorms  Fog  Heavy snow  Heavy precipitations  Wind > 20 kt






- Airport Elevation : 1170 ft
- IATA code : YYL


CYYL - Lynn Lake

CURRENT METAR :
  • 031415Z AUTO 25011KT 1 1/4SM HZ CLR 23/15 A2988 RMK SLP124 DENSITY ALT 2400FT

EXPIRED METARs :
  • 031400Z AUTO 25010KT 1SM HZ CLR 22/15 A2988 RMK SLP124 DENSITY ALT 2300FT
  • 031336Z AUTO 25007G15KT 1SM HZ CLR 21/15 A2989 RMK SLP129 DENSITY ALT 2200FT
  • 031300Z AUTO 25009KT 1 1/2SM HZ FEW110 20/14 A2990 RMK SLP131 DENSITY ALT 2000FT
  • 031213Z AUTO 24008KT 2SM HZ FEW110 18/13 A2990 RMK SLP135 DENSITY ALT 1800FT
  • 031200Z AUTO 23008KT 2 1/2SM HZ FEW110 17/13 A2990 RMK SLP132 DENSITY ALT 1800FT
  • 031144Z AUTO 23007KT 2 1/2SM HZ CLR 17/12 A2991 RMK SLP137 DENSITY ALT 1700FT

TAF AMD TAF CYYL
Valid from the 03 at 13:00 until the 04 at 01:00 UTC


031345Z 0313/0401 25008KT 4SM FU FEW090
TEMPO 0313/0317 1SM FU HZ
FM031700 26012G22KT 6SM FU SKC
TEMPO 0317/0320 2SM FU HZ
FM032000 28012G22KT P6SM FEW090 SCT240
TEMPO 0320/0401 5SM FU RMK FCST BASED ON AUTO OBS. NXT FCST BY 031900Z
CZWG FIR / North America



MET'MAP, your aeronautical weather chart ! - Copyright ORBIFLY December 2007 - Disclaimer

ORBIFLY MET'MAP TEAM :

Programming & Development : Alexandra Zaïnal
Concept & original design : Baudouin d'Aumeries
Assistance for programming : Marc-Olivier Méhu
Technical & hardware support : Manuel Goepfert

Contact : metmap@orbifly.com




SOURCES & CREDITS :

   NOAA       Earth
Advisory